Cannonville, UT (84718)

6:22 PM MDT on May 22, 2015 (GMT -0600)
Bryce Valley High School | | Change Station
CLOSE
Current Station
Personal Weather Station
Location: Tropic, UT
Elevation: 6388 ft
Nearby Weather Stations

Elev 6388 ft 37.62 °N, 112.09 °W | Updated 13 minutes ago

Overcast
Overcast
46.6 °F
Feels Like 46 °F
N
3.2
Wind Variable Wind from NNW

Today
High -- | Low -- °F
--% Chance of Precip.
Yesterday
High -- | Low -- °F
Precip. -- in
6:13 AM 8:36 PM
Waxing Crescent, 25% visible
Pressure 30.01 in
Visibility 6.0 miles
Clouds Mostly Cloudy 1900 ft
Overcast 3600 ft
Windchill 46 °F
Dew Point 46 °F
Humidity 98%
Rainfall 0.02 in
Snow Depth Not available.
UV 1 out of 12
Pollen 5.20 out of 12
Air Quality Not available.
Flu Activity Sporadic
SPECI KBCE 230002Z AUTO 18008G25KT 6SM -RA BKN019 OVC036 04/00 A3001 RMK AO2 WSHFT 2342 LTG DSNT NW P0000 T00440000

More Conditions Fewer Conditions

Pressure 30.01 in
Visibility 6.0 miles
Clouds Mostly Cloudy 1900 ft
Overcast 3600 ft
Windchill 46 °F
Dew Point 46 °F
Humidity 98%
Rainfall 0.02 in
Snow Depth Not available.
UV 1 out of 12
Pollen 5.20 out of 12
Air Quality Not available.
Flu Activity Sporadic
SPECI KBCE 230002Z AUTO 18008G25KT 6SM -RA BKN019 OVC036 04/00 A3001 RMK AO2 WSHFT 2342 LTG DSNT NW P0000 T00440000

More Conditions Fewer Conditions

10-Day Weather Forecast

Almanac

Astronomy

May. 22, 2015 Rise Set
Actual Time
Civil Twilight
Nautical Twilight
Astronomical Twilight
Moon
Length of Visible Light
Length of Day
Tomorrow will be .
, % of the Moon is Illuminated

Today's Extremes

State Highs State Lows

Community

WunderPhotos

Upload Photos

1,823,342 photos uploaded!

WunderBlogs® & News

Nearby

Air Quality

  Air Quality AQ Index Pollutant
Not available.

Snow Depth

Station Depth Elevation

Earthquake Activity

City Distance Mag. Time & Date
Minimum magnitude displayed is 2.5.

Coastal Water Temperatures

Place Temperature

Stations

Nearby Weather Stations

Station Location Temp. Windchill Dew Point Humidity Wind Precip. Elev Updated Type